Time;durP1;ratioP1;P1;durP2;ratioP2;P2;SDS_P1;SDS_P2;PMS_P1;PMS_P2;Temp;Humidity;BMP_temperature;BMP_pressure;BME280_temperature;BME280_humidity;BME280_pressure;Samples;Min_cycle;Max_cycle;Signal;HPM_P1;HPM_P2
2023/08/14 00:01:01;;;;;;;3.10;1.60;;;15.70;99.90;;;;;;5066717;28;20837;-68
2023/08/14 00:03:26;;;;;;;2.08;1.48;;;15.60;99.90;;;;;;5067461;28;20072;-67
2023/08/14 00:05:52;;;;;;;3.58;1.52;;;15.60;99.90;;;;;;5064035;28;20194;-69
2023/08/14 00:08:19;;;;;;;2.60;1.42;;;15.60;99.90;;;;;;5052604;28;20570;-74
2023/08/14 00:10:45;;;;;;;1.38;1.27;;;15.50;99.90;;;;;;5061918;28;20059;-65
2023/08/14 00:13:12;;;;;;;2.28;1.38;;;15.40;99.90;;;;;;5054627;28;20409;-65
2023/08/14 00:15:38;;;;;;;2.92;1.20;;;15.50;99.90;;;;;;5065526;28;20106;-65
2023/08/14 00:18:04;;;;;;;3.25;1.83;;;15.40;99.90;;;;;;5068207;28;20044;-65
2023/08/14 00:20:30;;;;;;;2.95;1.50;;;15.40;99.90;;;;;;5057057;28;20532;-65
2023/08/14 00:22:56;;;;;;;3.35;1.40;;;15.40;99.90;;;;;;5063908;28;20041;-65
2023/08/14 00:25:22;;;;;;;2.80;1.38;;;15.30;99.90;;;;;;5065855;28;20048;-65
2023/08/14 00:27:48;;;;;;;8.07;1.60;;;15.30;99.90;;;;;;5067518;28;20498;-65
2023/08/14 00:30:14;;;;;;;1.83;1.25;;;15.30;99.90;;;;;;5054179;28;20075;-65
2023/08/14 00:32:40;;;;;;;1.48;1.33;;;15.20;99.90;;;;;;5067922;28;20063;-65
2023/08/14 00:35:05;;;;;;;2.50;1.30;;;15.30;99.90;;;;;;5067504;28;20398;-64
2023/08/14 00:37:42;;;;;;;1.90;1.50;;;15.30;99.90;;;;;;5066266;28;20075;-65
2023/08/14 00:40:10;;;;;;;2.47;1.60;;;15.20;99.90;;;;;;5053793;28;20444;-65
2023/08/14 00:42:38;;;;;;;2.53;1.20;;;15.20;99.90;;;;;;5065112;28;20483;-65
2023/08/14 00:45:05;;;;;;;3.60;1.50;;;15.20;99.90;;;;;;5067589;28;20127;-65
2023/08/14 00:47:31;;;;;;;1.80;1.15;;;15.20;99.90;;;;;;5067289;28;20040;-64
2023/08/14 00:49:57;;;;;;;3.88;1.33;;;15.10;99.90;;;;;;5066608;28;20118;-66
2023/08/14 00:52:23;;;;;;;6.28;1.65;;;15.10;99.90;;;;;;5068111;28;20075;-67
2023/08/14 00:54:49;;;;;;;1.52;1.02;;;15.10;99.90;;;;;;5082113;28;20091;-66
2023/08/14 00:57:14;;;;;;;2.15;1.73;;;15.10;99.90;;;;;;5067639;28;20044;-66
2023/08/14 00:59:40;;;;;;;1.40;1.30;;;15.00;99.90;;;;;;5081348;28;20041;-67
2023/08/14 01:02:06;;;;;;;3.53;1.48;;;15.00;99.90;;;;;;5050236;28;20124;-66
2023/08/14 01:04:32;;;;;;;6.15;1.60;;;15.00;99.90;;;;;;5067224;28;20109;-66
2023/08/14 01:06:57;;;;;;;1.30;1.20;;;15.00;99.90;;;;;;5065688;28;20037;-66
2023/08/14 01:09:24;;;;;;;3.92;1.85;;;14.90;99.90;;;;;;5066038;28;20060;-67
2023/08/14 01:11:58;;;;;;;2.60;1.50;;;14.80;99.90;;;;;;5053907;28;20053;-66
2023/08/14 01:14:29;;;;;;;4.55;1.33;;;14.90;99.90;;;;;;5066239;28;20040;-66
2023/08/14 01:17:01;;;;;;;3.80;1.30;;;14.80;99.90;;;;;;5064670;28;20044;-66
2023/08/14 01:19:32;;;;;;;2.33;1.45;;;14.80;99.90;;;;;;5068171;28;20040;-66
2023/08/14 01:22:28;;;;;;;5.50;2.00;;;14.90;99.90;;;;;;5065480;28;20044;-66
2023/08/14 01:25:03;;;;;;;2.55;1.27;;;14.90;99.90;;;;;;5050303;28;20090;-66
2023/08/14 01:27:29;;;;;;;4.35;1.60;;;14.80;99.90;;;;;;5067068;28;20048;-77
2023/08/14 01:29:59;;;;;;;4.47;1.65;;;14.80;99.90;;;;;;5066112;28;20548;-67
2023/08/14 01:32:25;;;;;;;4.90;1.50;;;14.90;99.90;;;;;;5067555;28;20551;-69
2023/08/14 01:34:52;;;;;;;2.05;1.30;;;14.80;99.90;;;;;;5067004;28;20091;-66
2023/08/14 01:37:42;;;;;;;4.03;1.42;;;14.90;99.90;;;;;;5066031;28;20072;-66
2023/08/14 01:40:17;;;;;;;3.55;1.40;;;14.90;99.90;;;;;;5066777;28;20057;-76
2023/08/14 01:42:48;;;;;;;2.88;1.45;;;14.90;99.90;;;;;;5065777;28;20040;-66
2023/08/14 01:45:18;;;;;;;3.42;1.85;;;14.90;99.90;;;;;;5066898;28;20044;-66
2023/08/14 01:47:46;;;;;;;6.85;1.98;;;14.90;99.90;;;;;;5069884;28;20110;-66
2023/08/14 01:50:14;;;;;;;5.43;1.92;;;14.90;99.90;;;;;;5070976;28;20032;-66
2023/08/14 01:52:40;;;;;;;4.78;1.60;;;14.90;99.90;;;;;;5076370;28;20445;-66
2023/08/14 01:55:06;;;;;;;2.15;1.20;;;14.90;99.90;;;;;;5076826;28;20040;-66
2023/08/14 01:57:33;;;;;;;1.55;1.27;;;14.80;99.90;;;;;;5084428;28;20127;-86
2023/08/14 01:59:59;;;;;;;6.35;1.50;;;14.80;99.90;;;;;;5082593;28;20494;-66
2023/08/14 02:02:25;;;;;;;3.40;1.50;;;14.80;99.90;;;;;;5080878;28;20040;-69
2023/08/14 02:04:51;;;;;;;3.08;1.23;;;14.80;99.90;;;;;;5078913;28;20139;-66
2023/08/14 02:07:17;;;;;;;6.88;1.50;;;14.80;99.90;;;;;;5081426;28;20100;-68
2023/08/14 02:09:43;;;;;;;1.13;1.02;;;14.70;99.90;;;;;;5077629;28;20060;-66
2023/08/14 02:12:09;;;;;;;3.05;1.42;;;14.60;99.90;;;;;;5064368;28;20036;-66
2023/08/14 02:14:34;;;;;;;13.25;1.48;;;14.70;99.90;;;;;;5065945;28;20075;-67
2023/08/14 02:17:00;;;;;;;5.75;2.25;;;14.60;99.90;;;;;;5065142;28;20600;-66
2023/08/14 02:19:26;;;;;;;3.50;1.40;;;14.60;99.90;;;;;;5067056;28;20110;-67
2023/08/14 02:21:51;;;;;;;1.65;1.55;;;14.50;99.90;;;;;;5065495;28;20041;-66
2023/08/14 02:24:17;;;;;;;2.90;1.20;;;14.60;99.90;;;;;;5067020;28;20044;-66
2023/08/14 02:26:43;;;;;;;3.55;1.52;;;14.60;99.90;;;;;;5065807;28;20084;-66
2023/08/14 02:29:09;;;;;;;6.70;1.75;;;14.50;99.90;;;;;;5067843;28;20186;-67
2023/08/14 02:31:34;;;;;;;3.67;1.67;;;14.50;99.90;;;;;;5071405;28;20080;-67
2023/08/14 02:34:01;;;;;;;4.95;1.88;;;14.60;99.90;;;;;;5069385;28;20044;-67
2023/08/14 02:36:27;;;;;;;2.72;1.70;;;14.50;99.90;;;;;;5069942;28;20047;-66
2023/08/14 02:38:56;;;;;;;3.63;2.00;;;14.50;99.90;;;;;;5059586;28;20376;-67
2023/08/14 02:41:22;;;;;;;3.60;1.88;;;14.50;99.90;;;;;;5066822;28;20551;-66
2023/08/14 02:43:47;;;;;;;2.50;1.80;;;14.50;99.90;;;;;;5069271;28;20076;-66
2023/08/14 02:46:13;;;;;;;4.30;1.67;;;14.40;99.90;;;;;;5069288;28;20049;-66
2023/08/14 02:48:40;;;;;;;3.65;2.00;;;14.50;99.90;;;;;;5068559;28;20041;-66
2023/08/14 02:51:06;;;;;;;2.15;1.95;;;14.50;99.90;;;;;;5069564;28;20047;-66
2023/08/14 02:53:31;;;;;;;5.53;1.77;;;14.40;99.90;;;;;;5070390;28;20040;-66
2023/08/14 02:55:57;;;;;;;4.45;2.08;;;14.50;99.90;;;;;;5068407;28;20045;-67
2023/08/14 02:58:23;;;;;;;3.72;1.77;;;14.50;99.90;;;;;;5069749;28;20056;-67
2023/08/14 03:00:49;;;;;;;4.07;1.65;;;14.50;99.90;;;;;;5068060;28;20432;-68
2023/08/14 03:03:15;;;;;;;2.60;1.83;;;14.50;99.90;;;;;;5069956;28;20036;-89
2023/08/14 03:05:41;;;;;;;3.05;1.52;;;14.50;99.90;;;;;;5063047;28;20127;-67
2023/08/14 03:08:07;;;;;;;4.53;1.98;;;14.50;99.90;;;;;;5052962;28;20124;-67
2023/08/14 03:10:32;;;;;;;2.75;1.80;;;14.50;99.90;;;;;;5067877;28;20095;-67
2023/08/14 03:13:00;;;;;;;2.80;1.40;;;14.50;99.90;;;;;;5068802;28;20041;-67
2023/08/14 03:15:26;;;;;;;3.83;1.40;;;14.40;99.90;;;;;;5070148;28;20106;-67
2023/08/14 03:17:51;;;;;;;3.38;1.60;;;14.40;99.90;;;;;;5066292;28;20049;-70
2023/08/14 03:20:17;;;;;;;4.75;1.70;;;14.30;99.90;;;;;;5070000;28;20040;-67
2023/08/14 03:22:43;;;;;;;1.70;1.60;;;14.30;99.90;;;;;;5068403;28;20045;-66
2023/08/14 03:25:09;;;;;;;4.35;1.65;;;14.30;99.90;;;;;;5068466;28;20446;-67
2023/08/14 03:27:34;;;;;;;4.53;2.30;;;14.30;99.90;;;;;;5067264;28;20044;-67
2023/08/14 03:30:00;;;;;;;2.50;1.80;;;14.20;99.90;;;;;;5068696;28;20068;-67
2023/08/14 03:32:26;;;;;;;4.35;1.70;;;14.20;99.90;;;;;;5068352;28;20471;-67
2023/08/14 03:34:51;;;;;;;2.15;1.60;;;14.20;99.90;;;;;;5066724;28;20048;-67
2023/08/14 03:37:17;;;;;;;4.78;1.70;;;14.20;99.90;;;;;;5069613;28;20131;-89
2023/08/14 03:39:43;;;;;;;3.13;1.73;;;14.20;99.90;;;;;;5065715;28;20052;-67
2023/08/14 03:42:09;;;;;;;11.75;3.42;;;14.20;99.90;;;;;;5070108;28;20045;-67
2023/08/14 03:44:34;;;;;;;2.15;1.73;;;14.20;99.90;;;;;;5068293;28;20036;-67
2023/08/14 03:47:00;;;;;;;7.28;1.90;;;14.20;99.90;;;;;;5069105;28;20044;-91
2023/08/14 03:49:26;;;;;;;5.28;1.85;;;14.20;99.90;;;;;;5067698;28;20090;-67
2023/08/14 03:51:52;;;;;;;5.40;2.20;;;14.20;99.90;;;;;;5068065;28;20115;-68
2023/08/14 03:54:17;;;;;;;3.78;2.10;;;14.20;99.90;;;;;;5084766;28;20141;-67
2023/08/14 03:56:43;;;;;;;2.70;2.00;;;14.20;99.90;;;;;;5067494;28;20056;-66
2023/08/14 03:59:09;;;;;;;4.47;2.20;;;14.20;99.90;;;;;;5068672;28;20071;-67
2023/08/14 04:01:36;;;;;;;4.28;2.00;;;14.20;99.90;;;;;;5065911;28;20056;-81
2023/08/14 04:04:03;;;;;;;2.67;1.75;;;14.20;99.90;;;;;;5069308;28;20048;-93
2023/08/14 04:06:28;;;;;;;5.68;1.98;;;14.20;99.90;;;;;;5068081;28;20554;-67
2023/08/14 04:08:54;;;;;;;2.95;1.63;;;14.20;99.90;;;;;;5067177;28;20136;-67
2023/08/14 04:11:21;;;;;;;3.85;1.90;;;14.20;99.90;;;;;;5068772;28;20048;-67
2023/08/14 04:13:47;;;;;;;3.28;1.73;;;14.10;99.90;;;;;;5067410;28;20112;-67
2023/08/14 04:16:12;;;;;;;4.95;1.75;;;14.20;99.90;;;;;;5068588;28;20049;-67
2023/08/14 04:18:38;;;;;;;10.43;1.98;;;14.10;99.90;;;;;;5081864;28;20044;-67
2023/08/14 04:21:04;;;;;;;9.70;1.80;;;14.10;99.90;;;;;;5068511;28;20116;-67
2023/08/14 04:23:30;;;;;;;7.45;2.08;;;14.10;99.90;;;;;;5067279;28;20044;-67
2023/08/14 04:25:56;;;;;;;4.25;1.88;;;14.10;99.90;;;;;;5067029;28;20053;-67
2023/08/14 04:28:22;;;;;;;2.80;2.05;;;14.20;99.90;;;;;;5069693;28;20058;-67
2023/08/14 04:30:48;;;;;;;6.85;2.00;;;14.10;99.90;;;;;;5071071;28;20131;-67
2023/08/14 04:33:14;;;;;;;3.58;2.10;;;14.20;99.90;;;;;;5069075;28;20119;-68
2023/08/14 04:35:40;;;;;;;7.10;1.90;;;14.20;99.90;;;;;;5067621;28;20045;-67
2023/08/14 04:38:05;;;;;;;2.50;2.30;;;14.10;99.90;;;;;;5069648;28;20500;-69
2023/08/14 04:40:31;;;;;;;3.67;2.42;;;14.10;99.90;;;;;;5065440;28;20234;-67
2023/08/14 04:42:57;;;;;;;6.05;1.88;;;14.10;99.90;;;;;;5068356;28;20135;-67
2023/08/14 04:45:22;;;;;;;9.65;2.00;;;14.20;99.90;;;;;;5067006;28;20052;-67
2023/08/14 04:47:48;;;;;;;4.32;2.30;;;14.20;99.90;;;;;;5067335;28;20494;-67
2023/08/14 04:50:14;;;;;;;6.80;2.17;;;14.20;99.90;;;;;;5067869;28;20037;-67
2023/08/14 04:52:40;;;;;;;3.15;2.00;;;14.20;99.90;;;;;;5064608;28;20131;-67
2023/08/14 04:55:06;;;;;;;2.15;1.88;;;14.20;99.90;;;;;;5064862;28;20039;-67
2023/08/14 04:57:32;;;;;;;3.42;2.28;;;14.30;99.90;;;;;;5055232;28;20048;-67
2023/08/14 04:59:58;;;;;;;5.97;2.50;;;14.40;99.90;;;;;;5066648;28;20106;-67
2023/08/14 05:02:24;;;;;;;6.03;2.70;;;14.40;99.90;;;;;;5064966;28;20084;-66
2023/08/14 05:04:49;;;;;;;7.38;2.08;;;14.40;99.90;;;;;;5082995;28;20040;-66
2023/08/14 05:07:15;;;;;;;5.93;2.03;;;14.40;99.90;;;;;;5067304;28;20044;-66
2023/08/14 05:09:42;;;;;;;5.15;2.30;;;14.50;99.90;;;;;;5058432;28;20049;-66
2023/08/14 05:12:08;;;;;;;4.53;2.40;;;14.60;99.90;;;;;;5061282;28;20472;-66
2023/08/14 05:14:34;;;;;;;7.53;2.67;;;14.60;99.90;;;;;;5065475;28;20040;-77
2023/08/14 05:17:00;;;;;;;2.60;2.40;;;14.70;99.90;;;;;;5067898;28;20098;-66
2023/08/14 05:19:26;;;;;;;5.57;3.10;;;14.70;99.90;;;;;;5062653;28;20057;-66
2023/08/14 05:21:52;;;;;;;6.60;2.70;;;14.90;99.90;;;;;;5056902;28;20044;-67
2023/08/14 05:24:17;;;;;;;5.63;2.92;;;14.90;99.90;;;;;;5066837;28;20055;-66
2023/08/14 05:26:43;;;;;;;5.50;2.53;;;15.00;99.90;;;;;;5081830;28;20044;-71
2023/08/14 05:29:09;;;;;;;6.78;2.75;;;15.10;99.90;;;;;;5066513;28;20076;-66
2023/08/14 05:31:35;;;;;;;12.18;4.93;;;15.10;99.90;;;;;;5063898;28;20044;-66
2023/08/14 05:34:00;;;;;;;5.43;2.95;;;15.10;99.90;;;;;;5067543;28;20045;-66
2023/08/14 05:36:26;;;;;;;8.10;3.17;;;15.20;99.90;;;;;;5064679;28;20120;-66
2023/08/14 05:38:52;;;;;;;6.60;3.15;;;15.20;99.90;;;;;;5067099;28;20125;-66
2023/08/14 05:41:18;;;;;;;4.13;2.72;;;15.30;99.90;;;;;;5066293;28;20154;-66
2023/08/14 05:43:44;;;;;;;6.07;2.75;;;15.30;99.90;;;;;;5065146;28;20094;-66
2023/08/14 05:46:10;;;;;;;3.30;2.80;;;15.40;99.90;;;;;;5067127;28;20045;-67
2023/08/14 05:48:36;;;;;;;5.72;2.90;;;15.50;99.90;;;;;;5064388;28;20072;-67
2023/08/14 05:51:01;;;;;;;3.33;3.05;;;15.50;99.90;;;;;;5065934;28;20436;-66
2023/08/14 05:53:27;;;;;;;5.07;2.88;;;15.60;99.90;;;;;;5065725;28;20036;-76
2023/08/14 05:55:53;;;;;;;4.05;3.15;;;15.70;99.90;;;;;;5065726;28;20048;-66
2023/08/14 05:58:18;;;;;;;3.88;2.90;;;15.70;99.90;;;;;;5065631;28;20052;-66
2023/08/14 06:00:44;;;;;;;6.72;2.90;;;15.80;99.90;;;;;;5065359;28;20117;-66
2023/08/14 06:03:10;;;;;;;5.45;3.13;;;16.00;99.90;;;;;;5067723;28;20048;-66
2023/08/14 06:09:42;;;;;;;9.23;3.30;;;16.00;99.90;;;;;;5079129;22;20064;-61
2023/08/14 06:12:08;;;;;;;6.85;3.22;;;16.20;99.90;;;;;;5043045;23;20072;-57
2023/08/14 06:14:34;;;;;;;6.53;3.22;;;16.30;99.90;;;;;;5047703;28;20049;-54
2023/08/14 06:17:01;;;;;;;7.88;3.80;;;16.40;99.90;;;;;;5044494;28;20052;-60
2023/08/14 06:19:26;;;;;;;7.97;3.47;;;16.50;99.90;;;;;;5046162;28;20048;-56
2023/08/14 06:21:52;;;;;;;7.07;2.90;;;16.50;99.90;;;;;;5059942;28;20048;-52
2023/08/14 06:24:18;;;;;;;7.07;3.40;;;16.60;99.90;;;;;;5049634;28;20046;-51
2023/08/14 06:26:43;;;;;;;5.43;3.28;;;16.60;99.90;;;;;;5057772;28;20041;-59
2023/08/14 06:29:09;;;;;;;6.10;3.20;;;16.70;99.90;;;;;;5059966;28;20132;-51
2023/08/14 06:31:35;;;;;;;6.85;3.10;;;16.70;99.90;;;;;;5061632;28;20063;-54
2023/08/14 06:34:00;;;;;;;4.15;3.08;;;16.80;99.90;;;;;;5035293;28;20119;-59
2023/08/14 06:36:26;;;;;;;11.68;3.55;;;16.80;99.90;;;;;;5048294;28;20067;-83
2023/08/14 06:38:52;;;;;;;6.63;3.38;;;16.90;99.90;;;;;;5032504;28;20056;-55
2023/08/14 06:41:18;;;;;;;4.75;2.95;;;16.90;99.90;;;;;;5050269;28;20037;-53
2023/08/14 06:43:45;;;;;;;5.18;3.10;;;17.00;99.90;;;;;;5063482;28;20478;-69
2023/08/14 06:46:10;;;;;;;5.72;3.10;;;17.10;99.90;;;;;;5050974;28;20068;-55
2023/08/14 06:48:36;;;;;;;3.50;3.15;;;17.20;99.90;;;;;;5049026;28;20495;-68
2023/08/14 06:51:02;;;;;;;7.45;3.13;;;17.20;99.90;;;;;;5036682;28;20537;-84
2023/08/14 06:53:28;;;;;;;4.75;2.70;;;17.30;99.90;;;;;;5047232;28;20044;-55
2023/08/14 06:55:54;;;;;;;3.13;2.60;;;17.30;99.90;;;;;;5065482;28;20517;-85
2023/08/14 06:58:20;;;;;;;6.47;2.72;;;17.30;99.90;;;;;;5029152;28;20131;-82
2023/08/14 07:00:48;;;;;;;5.55;3.08;;;17.30;99.90;;;;;;5042949;28;20112;-67
2023/08/14 07:03:13;;;;;;;2.65;2.45;;;17.40;99.90;;;;;;5057761;28;20058;-67
2023/08/14 07:05:39;;;;;;;4.00;2.97;;;17.40;99.90;;;;;;5052129;28;20032;-63
2023/08/14 07:08:05;;;;;;;7.88;2.65;;;17.50;99.90;;;;;;5060552;28;20044;-77
2023/08/14 07:10:31;;;;;;;4.40;2.70;;;17.60;99.90;;;;;;5056307;28;20491;-54
2023/08/14 07:12:56;;;;;;;7.78;2.50;;;17.60;99.90;;;;;;5052005;28;20101;-52
2023/08/14 07:15:22;;;;;;;5.85;2.63;;;17.70;99.90;;;;;;5047464;28;20184;-60
2023/08/14 07:17:49;;;;;;;3.25;2.45;;;17.70;99.90;;;;;;5045124;28;20088;-67
2023/08/14 07:20:15;;;;;;;6.38;2.92;;;17.80;99.90;;;;;;5041876;28;20041;-56
2023/08/14 07:22:41;;;;;;;5.03;2.70;;;17.90;99.90;;;;;;5034867;28;20549;-52
2023/08/14 07:25:07;;;;;;;4.93;3.13;;;17.90;99.90;;;;;;5016219;28;20063;-50
2023/08/14 07:27:33;;;;;;;6.75;2.90;;;18.00;99.90;;;;;;5038296;28;20107;-60
2023/08/14 07:29:58;;;;;;;5.57;2.28;;;18.10;99.90;;;;;;5046472;28;20045;-54
2023/08/14 07:32:24;;;;;;;5.82;2.50;;;18.10;99.90;;;;;;5055356;28;20123;-55
2023/08/14 07:34:50;;;;;;;3.85;2.50;;;18.20;99.90;;;;;;5029729;28;20083;-58
2023/08/14 07:37:16;;;;;;;4.88;2.70;;;18.40;99.90;;;;;;5034447;28;20049;-76
2023/08/14 07:39:42;;;;;;;2.95;2.53;;;18.70;99.90;;;;;;5055830;28;20097;-62
2023/08/14 07:42:08;;;;;;;5.40;2.47;;;18.90;99.90;;;;;;5047370;28;20654;-54
2023/08/14 07:44:33;;;;;;;3.90;2.50;;;19.00;99.90;;;;;;5036207;28;20076;-62
2023/08/14 07:46:59;;;;;;;3.08;2.40;;;19.20;99.90;;;;;;5052811;28;20049;-60
2023/08/14 07:49:27;;;;;;;4.22;2.70;;;19.50;99.90;;;;;;5029283;28;20104;-58
2023/08/14 07:51:53;;;;;;;5.13;2.58;;;19.70;99.90;;;;;;5048869;28;20500;-65
2023/08/14 07:54:19;;;;;;;6.93;3.00;;;20.20;99.90;;;;;;5031629;28;20048;-54
2023/08/14 07:56:45;;;;;;;6.22;2.33;;;20.60;99.90;;;;;;5031940;28;20094;-56
2023/08/14 07:59:11;;;;;;;4.32;2.55;;;20.90;99.90;;;;;;5033126;28;20049;-55
2023/08/14 08:01:37;;;;;;;2.95;1.85;;;21.30;99.90;;;;;;5029409;28;20495;-55
2023/08/14 08:04:03;;;;;;;3.80;1.80;;;21.60;99.90;;;;;;5043106;28;20045;-56
2023/08/14 08:06:29;;;;;;;5.80;2.33;;;21.80;99.90;;;;;;5046317;28;20041;-58
2023/08/14 08:08:54;;;;;;;6.82;2.03;;;21.90;99.90;;;;;;5053487;28;20067;-59
2023/08/14 08:11:20;;;;;;;4.45;1.70;;;22.00;99.90;;;;;;5048886;28;20041;-61
2023/08/14 08:13:46;;;;;;;5.03;1.92;;;22.20;99.90;;;;;;5048345;28;20033;-65
2023/08/14 08:16:11;;;;;;;2.83;1.70;;;22.30;99.90;;;;;;5045286;28;20048;-60
2023/08/14 08:18:37;;;;;;;5.20;1.52;;;22.40;99.90;;;;;;5045278;28;20047;-60
2023/08/14 08:21:03;;;;;;;3.72;2.00;;;22.50;99.90;;;;;;5016206;28;20038;-56
2023/08/14 08:23:29;;;;;;;4.03;1.38;;;22.50;99.90;;;;;;5046529;28;20817;-62
2023/08/14 08:25:55;;;;;;;6.38;1.80;;;22.50;99.90;;;;;;5033748;28;20707;-62
2023/08/14 08:28:20;;;;;;;3.13;1.38;;;22.40;99.90;;;;;;5052452;28;20045;-63
2023/08/14 08:30:46;;;;;;;3.67;1.30;;;22.40;99.90;;;;;;5009862;28;20033;-62
2023/08/14 08:33:12;;;;;;;6.45;1.45;;;22.40;99.90;;;;;;5021736;28;20045;-62
2023/08/14 08:35:38;;;;;;;3.22;1.13;;;22.40;99.90;;;;;;5014464;28;20072;-63
2023/08/14 08:38:04;;;;;;;4.65;1.60;;;22.50;99.90;;;;;;5034937;28;20053;-59
2023/08/14 08:40:33;;;;;;;4.38;1.02;;;22.60;99.90;;;;;;5024966;28;20044;-58
2023/08/14 08:43:02;;;;;;;3.60;1.33;;;22.70;99.60;;;;;;5039593;28;20040;-58
2023/08/14 08:45:31;;;;;;;2.63;2.40;;;22.80;97.80;;;;;;5057831;28;20553;-56
2023/08/14 08:47:59;;;;;;;;;;;22.90;98.50;;;;;;5048830;28;20052;-61
2023/08/14 08:50:27;;;;;;;1.17;1.08;;;23.00;98.20;;;;;;5023793;28;19924;-57
2023/08/14 08:52:54;;;;;;;3.35;1.45;;;23.10;97.60;;;;;;5049892;28;20054;-60
2023/08/14 08:55:20;;;;;;;5.45;1.27;;;23.10;95.60;;;;;;5035518;28;20108;-61
2023/08/14 08:57:54;;;;;;;2.22;1.35;;;23.00;90.80;;;;;;5053368;28;20538;-59
2023/08/14 09:00:21;;;;;;;4.20;1.48;;;23.00;87.50;;;;;;5028297;28;20104;-56
2023/08/14 09:02:47;;;;;;;4.30;1.33;;;23.10;83.40;;;;;;5027286;28;20078;-58
2023/08/14 09:05:13;;;;;;;2.47;1.30;;;23.30;92.10;;;;;;5042502;28;20447;-56
2023/08/14 09:07:39;;;;;;;6.55;1.50;;;23.50;89.00;;;;;;5044162;28;20040;-58
2023/08/14 09:10:08;;;;;;;4.18;1.15;;;23.80;81.00;;;;;;5036259;28;20041;-57
2023/08/14 09:12:35;;;;;;;2.67;1.48;;;23.90;53.30;;;;;;5037071;28;20471;-66
2023/08/14 09:15:06;;;;;;;3.17;1.40;;;24.00;51.30;;;;;;5022725;28;20494;-55
2023/08/14 09:17:33;;;;;;;6.20;1.52;;;24.10;47.70;;;;;;5049301;28;20461;-66
2023/08/14 09:19:59;;;;;;;2.08;1.30;;;24.10;43.80;;;;;;5043506;28;20434;-59
2023/08/14 09:22:28;;;;;;;3.55;1.10;;;24.20;42.90;;;;;;5020842;28;20129;-61
2023/08/14 09:24:56;;;;;;;2.60;1.23;;;24.10;12.70;;;;;;5006233;28;20048;-64
2023/08/14 09:27:23;;;;;;;2.78;1.20;;;23.80;16.10;;;;;;5047251;28;20057;-63
2023/08/14 09:29:53;;;;;;;2.95;0.90;;;23.60;12.50;;;;;;5046077;28;20124;-58
2023/08/14 09:32:23;;;;;;;4.22;2.08;;;23.30;21.80;;;;;;5046199;28;20045;-78
2023/08/14 09:35:01;;;;;;;4.25;1.33;;;23.10;28.60;;;;;;5048064;28;20047;-56
2023/08/14 09:37:27;;;;;;;2.08;1.20;;;22.90;39.40;;;;;;5020592;28;20456;-55
2023/08/14 09:40:17;;;;;;;2.55;1.10;;;22.90;36.10;;;;;;5047872;28;20051;-65
2023/08/14 09:42:47;;;;;;;3.33;1.20;;;23.20;41.10;;;;;;5026870;28;20056;-61
2023/08/14 09:45:14;;;;;;;3.15;1.23;;;23.40;41.40;;;;;;5028246;28;20067;-63
2023/08/14 09:47:45;;;;;;;3.70;1.10;;;23.70;11.20;;;;;;5012113;28;20517;-57
2023/08/14 09:50:13;;;;;;;4.13;1.00;;;23.80;1.80;;;;;;5048475;28;20036;-63
2023/08/14 09:52:39;;;;;;;4.40;1.05;;;24.10;8.60;;;;;;5029528;28;20040;-63
2023/08/14 09:55:06;;;;;;;4.40;1.17;;;24.30;3.20;;;;;;5056462;28;20116;-62
2023/08/14 09:57:33;;;;;;;2.80;1.02;;;24.50;6.60;;;;;;5013691;28;20507;-63
2023/08/14 09:59:59;;;;;;;2.97;1.23;;;24.80;7.20;;;;;;5045217;28;20101;-52
2023/08/14 10:02:26;;;;;;;4.65;1.38;;;25.00;1.00;;;;;;5023163;28;20451;-65
2023/08/14 10:04:52;;;;;;;1.90;1.10;;;25.10;1.00;;;;;;4998086;28;20053;-55
2023/08/14 10:07:19;;;;;;;2.58;0.95;;;25.30;1.00;;;;;;5053401;28;20041;-55
2023/08/14 10:09:50;;;;;;;1.98;0.80;;;25.20;1.00;;;;;;5032890;28;20502;-56
2023/08/14 10:12:22;;;;;;;4.75;1.33;;;25.30;1.00;;;;;;5042157;28;20103;-62
2023/08/14 10:15:04;;;;;;;1.45;0.93;;;25.10;1.00;;;;;;5019326;28;20766;-63
2023/08/14 10:17:36;;;;;;;3.40;1.10;;;24.80;1.00;;;;;;5033289;28;20057;-56
2023/08/14 10:20:03;;;;;;;2.83;1.05;;;24.60;1.00;;;;;;5015501;28;20217;-61
2023/08/14 10:22:33;;;;;;;3.95;1.45;;;24.60;1.00;;;;;;5012318;28;20096;-58
2023/08/14 10:25:03;;;;;;;3.47;0.90;;;24.60;1.00;;;;;;5020485;28;20144;-58
2023/08/14 10:27:30;;;;;;;2.05;0.90;;;24.70;1.00;;;;;;5037613;28;20135;-61
2023/08/14 10:29:57;;;;;;;2.75;1.25;;;24.70;1.00;;;;;;5031149;28;20120;-58
2023/08/14 10:32:23;;;;;;;1.77;1.27;;;24.60;1.00;;;;;;5028375;28;20506;-56
2023/08/14 10:34:50;;;;;;;4.70;1.15;;;24.60;1.00;;;;;;5027713;28;20059;-60
2023/08/14 10:37:40;;;;;;;4.22;1.10;;;24.70;1.00;;;;;;5027761;28;20041;-63
2023/08/14 10:40:14;;;;;;;2.10;0.93;;;24.80;1.00;;;;;;5046014;28;20044;-61
2023/08/14 10:43:00;;;;;;;1.58;0.90;;;24.90;1.00;;;;;;5044812;28;20513;-62
2023/08/14 10:45:28;;;;;;;3.25;0.90;;;25.00;1.00;;;;;;5024662;28;20052;-59
2023/08/14 10:47:59;;;;;;;2.20;1.40;;;24.90;1.00;;;;;;5031783;28;20049;-56
2023/08/14 10:50:28;;;;;;;1.75;0.82;;;24.90;1.00;;;;;;5049960;28;20045;-56
2023/08/14 10:52:56;;;;;;;7.47;2.25;;;24.70;1.00;;;;;;5029322;28;20506;-66
2023/08/14 10:55:42;;;;;;;2.67;0.75;;;24.70;1.00;;;;;;5038359;28;20053;-64
2023/08/14 10:58:38;;;;;;;1.90;1.10;;;24.50;1.00;;;;;;5016846;28;20060;-65
2023/08/14 11:01:06;;;;;;;5.80;0.82;;;24.30;1.00;;;;;;5039017;28;20392;-75
2023/08/14 11:03:34;;;;;;;2.20;1.00;;;24.10;1.00;;;;;;5038566;28;20080;-64
2023/08/14 11:06:00;;;;;;;4.43;1.17;;;23.90;1.00;;;;;;5034157;28;20628;-57
2023/08/14 11:08:29;;;;;;;1.23;0.68;;;23.90;1.00;;;;;;5042630;28;20040;-62
2023/08/14 11:10:56;;;;;;;3.03;0.70;;;23.90;1.00;;;;;;5039911;28;20091;-61
2023/08/14 11:13:22;;;;;;;2.17;0.90;;;23.90;1.00;;;;;;5029894;28;20065;-58
2023/08/14 11:15:48;;;;;;;2.60;0.85;;;23.80;1.00;;;;;;5039277;28;20696;-58
2023/08/14 11:18:15;;;;;;;5.90;1.25;;;24.00;1.00;;;;;;5013392;28;20053;-57
2023/08/14 11:20:42;;;;;;;3.63;1.15;;;24.20;1.00;;;;;;5030269;28;20081;-65
2023/08/14 11:23:09;;;;;;;3.55;0.80;;;24.20;1.00;;;;;;5040452;28;20053;-61
2023/08/14 11:25:36;;;;;;;1.23;0.75;;;24.20;1.00;;;;;;5047517;28;20510;-56
2023/08/14 11:28:02;;;;;;;4.85;0.90;;;24.30;1.00;;;;;;5040896;28;20044;-58
2023/08/14 11:30:35;;;;;;;1.95;0.88;;;24.30;1.00;;;;;;5059641;28;20048;-79
2023/08/14 11:33:05;;;;;;;3.85;1.00;;;24.30;1.00;;;;;;5039278;28;20051;-62
2023/08/14 11:35:31;;;;;;;3.85;1.00;;;24.30;1.00;;;;;;5059974;28;20082;-56
2023/08/14 11:37:57;;;;;;;2.72;1.02;;;24.20;1.00;;;;;;5033357;28;20140;-73
2023/08/14 11:40:24;;;;;;;2.00;0.98;;;24.20;1.00;;;;;;5027830;28;20036;-60
2023/08/14 11:42:50;;;;;;;3.08;0.77;;;24.20;1.00;;;;;;5054461;28;20406;-59
2023/08/14 11:45:17;;;;;;;2.22;0.80;;;24.30;1.00;;;;;;5027123;28;20037;-56
2023/08/14 11:47:50;;;;;;;3.83;0.88;;;24.40;1.00;;;;;;5049047;28;20147;-60
2023/08/14 11:50:17;;;;;;;4.15;0.80;;;24.40;1.00;;;;;;5046430;28;20041;-64
2023/08/14 11:52:45;;;;;;;2.30;0.80;;;24.60;1.00;;;;;;5019936;28;20618;-59
2023/08/14 11:55:13;;;;;;;1.60;0.80;;;24.60;1.00;;;;;;5048558;28;20053;-77
2023/08/14 11:57:39;;;;;;;2.50;1.10;;;24.70;1.00;;;;;;5044589;28;20083;-63
2023/08/14 12:00:13;;;;;;;1.83;0.80;;;24.80;1.00;;;;;;5038712;28;20037;-59
2023/08/14 12:02:39;;;;;;;2.15;0.90;;;25.00;1.00;;;;;;5038577;28;20052;-57
2023/08/14 12:05:05;;;;;;;1.67;0.80;;;25.00;1.00;;;;;;5019432;28;20060;-75
2023/08/14 12:07:41;;;;;;;3.33;0.88;;;25.10;1.00;;;;;;5040750;28;20032;-66
2023/08/14 12:10:08;;;;;;;1.35;0.70;;;25.20;1.00;;;;;;5041595;28;20048;-56
2023/08/14 12:12:34;;;;;;;1.35;0.82;;;25.30;1.00;;;;;;5057542;28;20053;-55
2023/08/14 12:15:00;;;;;;;1.45;0.90;;;25.30;1.00;;;;;;5040905;28;20055;-55
2023/08/14 12:17:26;;;;;;;1.52;0.77;;;25.30;1.00;;;;;;5048380;28;20058;-65
2023/08/14 12:19:59;;;;;;;2.78;0.82;;;25.30;1.00;;;;;;5065296;28;20041;-60
2023/08/14 12:22:26;;;;;;;3.80;1.10;;;25.50;1.00;;;;;;5016691;28;20503;-59
2023/08/14 12:24:54;;;;;;;0.90;0.50;;;25.50;1.00;;;;;;5019800;28;20269;-66
2023/08/14 12:27:27;;;;;;;3.63;0.98;;;25.60;1.00;;;;;;5041170;28;20052;-56
2023/08/14 12:29:55;;;;;;;3.30;0.88;;;25.50;1.00;;;;;;5045658;28;20045;-62
2023/08/14 12:32:23;;;;;;;2.67;0.90;;;25.30;1.00;;;;;;5047562;28;20056;-59
2023/08/14 12:34:49;;;;;;;1.27;0.80;;;25.20;1.00;;;;;;5028209;28;20041;-64
2023/08/14 12:37:15;;;;;;;3.15;0.73;;;25.10;1.00;;;;;;5048962;28;20045;-63
2023/08/14 12:39:43;;;;;;;1.77;0.63;;;25.20;1.00;;;;;;5046025;28;20532;-58
2023/08/14 12:42:12;;;;;;;3.25;1.20;;;25.30;1.00;;;;;;5048156;28;20450;-61
2023/08/14 12:44:38;;;;;;;1.17;0.60;;;25.40;1.00;;;;;;5047453;28;20041;-55
2023/08/14 12:47:04;;;;;;;3.38;0.90;;;25.50;1.00;;;;;;5027410;28;20117;-66
2023/08/14 12:49:31;;;;;;;1.55;0.63;;;25.40;1.00;;;;;;5047276;28;20429;-85
2023/08/14 12:51:59;;;;;;;0.88;0.73;;;25.40;1.00;;;;;;5046152;28;20156;-62
2023/08/14 12:54:25;;;;;;;2.30;0.82;;;25.50;1.00;;;;;;5030294;28;20058;-83